Time;durP1;ratioP1;P1;durP2;ratioP2;P2;SDS_P1;SDS_P2;PMS_P1;PMS_P2;Temp;Humidity;BMP_temperature;BMP_pressure;BME280_temperature;BME280_humidity;BME280_pressure;Samples;Min_cycle;Max_cycle;Signal;HPM_P1;HPM_P2
2023/08/21 00:00:08;;;;;;;5.10;4.60;;;;;;;;;;2597330;22;20007;-94
2023/08/21 00:01:08;;;;;;;6.45;4.57;;;;;;;;;;2607570;22;20007;-94
2023/08/21 00:02:09;;;;;;;6.00;4.47;;;;;;;;;;2607409;22;20060;-94
2023/08/21 00:03:09;;;;;;;7.13;4.75;;;;;;;;;;2594682;22;20008;-95
2023/08/21 00:04:09;;;;;;;8.98;4.90;;;;;;;;;;2594641;22;20149;-95
2023/08/21 00:05:10;;;;;;;7.50;4.60;;;;;;;;;;2594965;22;20514;-95
2023/08/21 00:06:11;;;;;;;5.15;4.28;;;;;;;;;;2582718;23;20008;-94
2023/08/21 00:07:11;;;;;;;6.68;4.22;;;;;;;;;;2582914;23;20027;-95
2023/08/21 00:08:11;;;;;;;6.70;4.70;;;;;;;;;;2582929;23;20039;-96
2023/08/21 00:09:12;;;;;;;6.57;4.18;;;;;;;;;;2582747;23;20011;-96
2023/08/21 00:11:22;;;;;;;4.70;4.00;;;;;;;;;;2575647;22;20020;-95
2023/08/21 00:12:23;;;;;;;4.70;3.67;;;;;;;;;;2595429;22;20342;-93
2023/08/21 00:13:23;;;;;;;8.88;4.47;;;;;;;;;;2596723;22;20007;-95
2023/08/21 00:14:23;;;;;;;5.45;3.58;;;;;;;;;;2595931;22;20015;-93
2023/08/21 00:15:24;;;;;;;5.78;4.38;;;;;;;;;;2596391;22;20007;-94
2023/08/21 00:16:26;;;;;;;5.65;4.00;;;;;;;;;;2595316;22;20080;-94
2023/08/21 00:17:26;;;;;;;5.50;4.07;;;;;;;;;;2583156;22;20012;-94
2023/08/21 00:18:27;;;;;;;6.85;4.05;;;;;;;;;;2596270;22;20487;-95
2023/08/21 00:19:27;;;;;;;7.38;4.30;;;;;;;;;;2608230;22;20076;-95
2023/08/21 00:20:27;;;;;;;4.97;4.15;;;;;;;;;;2611124;22;20004;-96
2023/08/21 00:21:28;;;;;;;5.53;4.70;;;;;;;;;;2593152;23;20015;-91
2023/08/21 00:22:29;;;;;;;6.38;4.32;;;;;;;;;;2591384;22;20019;-94
2023/08/21 00:23:30;;;;;;;5.47;4.22;;;;;;;;;;2598835;22;20090;-94
2023/08/21 00:24:30;;;;;;;5.30;4.47;;;;;;;;;;2603969;22;20015;-94
2023/08/21 00:25:31;;;;;;;7.38;4.40;;;;;;;;;;2608972;22;20086;-94
2023/08/21 00:26:31;;;;;;;6.80;4.18;;;;;;;;;;2609648;22;20336;-95
2023/08/21 00:27:32;;;;;;;4.30;3.90;;;;;;;;;;2595591;22;20061;-94
2023/08/21 00:28:35;;;;;;;5.47;4.50;;;;;;;;;;2582956;23;20008;-93
2023/08/21 00:29:36;;;;;;;5.57;4.47;;;;;;;;;;2583443;22;20445;-94
2023/08/21 00:30:36;;;;;;;6.35;4.20;;;;;;;;;;2582736;23;20085;-94
2023/08/21 00:31:36;;;;;;;5.35;4.85;;;;;;;;;;2595516;22;20058;-94
2023/08/21 00:32:37;;;;;;;6.28;4.57;;;;;;;;;;2582760;23;20000;-93
2023/08/21 00:33:37;;;;;;;4.57;3.70;;;;;;;;;;2582615;23;20078;-94
2023/08/21 00:34:38;;;;;;;8.75;4.35;;;;;;;;;;2582500;23;20003;-93
2023/08/21 00:35:38;;;;;;;8.68;4.53;;;;;;;;;;2596090;22;20527;-95
2023/08/21 00:36:39;;;;;;;5.55;4.03;;;;;;;;;;2608195;22;19991;-94
2023/08/21 00:37:39;;;;;;;5.03;4.50;;;;;;;;;;2608396;22;20018;-95
2023/08/21 00:38:40;;;;;;;7.85;4.50;;;;;;;;;;2595499;22;20441;-94
2023/08/21 00:39:40;;;;;;;8.95;4.28;;;;;;;;;;2582796;23;19992;-95
2023/08/21 00:40:40;;;;;;;5.50;4.47;;;;;;;;;;2583108;23;19992;-94
2023/08/21 00:41:42;;;;;;;5.28;4.35;;;;;;;;;;2142006;22;10287683;-94
2023/08/21 00:42:42;;;;;;;5.05;4.13;;;;;;;;;;2586463;22;20310;-95
2023/08/21 00:43:42;;;;;;;5.68;4.82;;;;;;;;;;2595339;22;19987;-93
2023/08/21 00:44:43;;;;;;;5.57;4.40;;;;;;;;;;2595925;22;19995;-93
2023/08/21 00:45:45;;;;;;;6.18;4.20;;;;;;;;;;2582695;23;20437;-93
2023/08/21 00:46:46;;;;;;;6.40;4.28;;;;;;;;;;2582702;22;20106;-93
2023/08/21 00:47:46;;;;;;;6.47;4.47;;;;;;;;;;2583506;23;19992;-93
2023/08/21 00:48:47;;;;;;;8.40;4.45;;;;;;;;;;2598617;22;19992;-93
2023/08/21 00:49:47;;;;;;;5.38;4.35;;;;;;;;;;2595497;22;19992;-93
2023/08/21 00:50:50;;;;;;;6.95;4.60;;;;;;;;;;2582650;23;19992;-93
2023/08/21 00:51:51;;;;;;;6.03;4.22;;;;;;;;;;2595326;22;20376;-95
2023/08/21 00:52:52;;;;;;;7.25;4.45;;;;;;;;;;2582775;22;20075;-96
2023/08/21 00:53:52;;;;;;;4.65;4.05;;;;;;;;;;2582445;23;20465;-95
2023/08/21 00:54:53;;;;;;;4.78;3.92;;;;;;;;;;2582505;23;20057;-94
2023/08/21 00:55:53;;;;;;;5.72;4.47;;;;;;;;;;2582569;23;19996;-93
2023/08/21 00:56:54;;;;;;;5.78;4.30;;;;;;;;;;2582661;23;20635;-96
2023/08/21 00:57:54;;;;;;;5.57;4.55;;;;;;;;;;2582899;23;19996;-95
2023/08/21 00:58:55;;;;;;;7.57;5.00;;;;;;;;;;2594581;23;20087;-95
2023/08/21 00:59:55;;;;;;;7.22;4.70;;;;;;;;;;2594728;22;19984;-94
2023/08/21 01:00:57;;;;;;;7.78;5.25;;;;;;;;;;2610261;22;20018;-95
2023/08/21 01:01:58;;;;;;;5.93;4.40;;;;;;;;;;2599616;22;20019;-95
2023/08/21 01:03:03;;;;;;;6.90;4.25;;;;;;;;;;2598746;22;20426;-94
2023/08/21 01:04:03;;;;;;;8.15;4.70;;;;;;;;;;2594261;22;20134;-94
2023/08/21 01:05:05;;;;;;;5.47;4.55;;;;;;;;;;2582855;23;20106;-94
2023/08/21 01:06:05;;;;;;;7.85;4.40;;;;;;;;;;2582457;22;20012;-94
2023/08/21 01:07:09;;;;;;;5.00;4.50;;;;;;;;;;2595335;22;20005;-95
2023/08/21 01:08:31;;;;;;;7.45;4.47;;;;;;;;;;2607656;22;20434;-94
2023/08/21 01:09:54;;;;;;;5.18;4.43;;;;;;;;;;2589746;22;20086;-95
2023/08/21 01:11:03;;;;;;;7.95;4.95;;;;;;;;;;2595701;22;20012;-93
2023/08/21 01:12:12;;;;;;;6.13;4.75;;;;;;;;;;2584291;22;20012;-96
2023/08/21 01:13:21;;;;;;;6.53;4.30;;;;;;;;;;2596770;22;20542;-95
2023/08/21 01:14:43;;;;;;;7.70;4.57;;;;;;;;;;2595563;22;20511;-94
2023/08/21 01:15:45;;;;;;;6.55;4.97;;;;;;;;;;2586969;22;20074;-95
2023/08/21 01:16:47;;;;;;;8.50;5.05;;;;;;;;;;2582322;22;20023;-96
2023/08/21 01:17:49;;;;;;;6.97;5.32;;;;;;;;;;2582671;22;20000;-95
2023/08/21 01:18:50;;;;;;;7.15;5.25;;;;;;;;;;2582755;22;20090;-95
2023/08/21 01:19:52;;;;;;;8.65;4.70;;;;;;;;;;2582572;22;20061;-95
2023/08/21 01:20:54;;;;;;;7.60;4.88;;;;;;;;;;2582993;22;20496;-95
2023/08/21 01:21:54;;;;;;;8.25;5.97;;;;;;;;;;2582729;22;19996;-95
2023/08/21 01:22:55;;;;;;;5.38;4.88;;;;;;;;;;2582639;23;19995;-95
2023/08/21 01:23:55;;;;;;;10.05;5.38;;;;;;;;;;2582491;23;20020;-95
2023/08/21 01:24:55;;;;;;;8.82;5.00;;;;;;;;;;2582542;23;20410;-95
2023/08/21 01:25:56;;;;;;;7.60;5.40;;;;;;;;;;2598479;22;19992;-94
2023/08/21 01:26:56;;;;;;;9.63;6.40;;;;;;;;;;2599113;22;19996;-95
2023/08/21 01:27:57;;;;;;;6.47;5.32;;;;;;;;;;2595309;22;20039;-94
2023/08/21 01:28:57;;;;;;;8.88;5.43;;;;;;;;;;2595175;22;20076;-95
2023/08/21 01:29:59;;;;;;;7.35;5.00;;;;;;;;;;2607840;22;20097;-95
2023/08/21 01:31:09;;;;;;;7.82;5.20;;;;;;;;;;2582215;22;20015;-96
2023/08/21 01:32:12;;;;;;;6.88;5.82;;;;;;;;;;2597203;22;20417;-95
2023/08/21 01:33:15;;;;;;;6.78;5.40;;;;;;;;;;2595135;22;20053;-95
2023/08/21 01:34:16;;;;;;;6.80;5.82;;;;;;;;;;2596785;22;20558;-94
2023/08/21 01:35:17;;;;;;;6.63;5.38;;;;;;;;;;2607872;22;20093;-94
2023/08/21 01:36:18;;;;;;;7.90;5.55;;;;;;;;;;2608200;22;20007;-94
2023/08/21 01:37:19;;;;;;;7.35;6.47;;;;;;;;;;2595091;22;20004;-95
2023/08/21 01:38:20;;;;;;;7.03;6.25;;;;;;;;;;2582712;23;20022;-94
2023/08/21 01:39:21;;;;;;;5.78;5.10;;;;;;;;;;2595291;22;20011;-96
2023/08/21 01:40:24;;;;;;;8.27;5.80;;;;;;;;;;2582561;23;20433;-94
2023/08/21 01:41:25;;;;;;;10.00;5.95;;;;;;;;;;2583017;22;20023;-96
2023/08/21 01:42:25;;;;;;;10.50;6.20;;;;;;;;;;2582580;23;20004;-94
2023/08/21 01:43:26;;;;;;;9.05;6.18;;;;;;;;;;2595087;22;20424;-94
2023/08/21 01:44:26;;;;;;;6.78;6.03;;;;;;;;;;2595246;22;20000;-95
2023/08/21 01:45:27;;;;;;;8.55;6.57;;;;;;;;;;2595252;22;20026;-94
2023/08/21 01:46:27;;;;;;;10.00;6.72;;;;;;;;;;2582482;23;20051;-95
2023/08/21 01:47:28;;;;;;;8.40;6.05;;;;;;;;;;2595124;22;20008;-95
2023/08/21 01:48:28;;;;;;;9.93;6.50;;;;;;;;;;2594623;22;20004;-96
2023/08/21 01:49:29;;;;;;;6.75;6.10;;;;;;;;;;2151639;23;10001059;-94
2023/08/21 01:50:29;;;;;;;7.60;5.95;;;;;;;;;;2582041;23;20030;-94
2023/08/21 01:51:29;;;;;;;8.35;6.55;;;;;;;;;;2595995;22;20014;-95
2023/08/21 01:52:30;;;;;;;9.35;6.07;;;;;;;;;;2595003;22;20333;-94
2023/08/21 01:53:30;;;;;;;8.50;6.45;;;;;;;;;;2582920;22;20020;-94
2023/08/21 01:54:30;;;;;;;8.43;6.35;;;;;;;;;;2595165;22;20464;-94
2023/08/21 01:55:31;;;;;;;6.93;6.05;;;;;;;;;;2582482;23;20012;-95
2023/08/21 01:56:31;;;;;;;7.15;5.90;;;;;;;;;;2582208;23;20019;-94
2023/08/21 01:57:32;;;;;;;7.38;6.05;;;;;;;;;;2584255;22;20004;-93
2023/08/21 01:58:32;;;;;;;6.63;5.90;;;;;;;;;;2600838;22;20038;-94
2023/08/21 01:59:32;;;;;;;7.32;6.32;;;;;;;;;;2586420;23;20004;-94
2023/08/21 02:00:33;;;;;;;7.63;5.88;;;;;;;;;;2596538;22;20000;-95
2023/08/21 02:01:33;;;;;;;6.75;5.80;;;;;;;;;;2595092;22;20007;-95
2023/08/21 02:02:34;;;;;;;8.27;5.80;;;;;;;;;;2582326;23;20016;-95
2023/08/21 02:03:34;;;;;;;12.85;6.20;;;;;;;;;;2582476;23;20000;-93
2023/08/21 02:04:35;;;;;;;7.03;6.30;;;;;;;;;;2595271;22;20444;-94
2023/08/21 02:05:39;;;;;;;7.88;6.43;;;;;;;;;;2595308;22;20473;-95
2023/08/21 02:07:12;;;;;;;8.85;5.55;;;;;;;;;;2582430;22;20020;-94
2023/08/21 05:40:53;;;;;;;6.15;4.70;;;;;;;;;;2585512;22;20012;-95
2023/08/21 05:41:54;;;;;;;5.63;4.05;;;;;;;;;;2598993;22;20452;-96
2023/08/21 05:42:55;;;;;;;4.82;3.95;;;;;;;;;;2595219;22;20022;-96
2023/08/21 05:43:55;;;;;;;7.82;4.95;;;;;;;;;;2582765;22;20074;-96
2023/08/21 05:44:55;;;;;;;8.05;4.50;;;;;;;;;;2582545;23;20000;-96
2023/08/21 05:45:56;;;;;;;6.85;4.63;;;;;;;;;;2582409;23;20039;-94
2023/08/21 05:46:56;;;;;;;6.10;4.38;;;;;;;;;;2582330;23;20027;-96
2023/08/21 05:47:57;;;;;;;6.90;4.45;;;;;;;;;;2595035;22;20004;-96
2023/08/21 05:48:57;;;;;;;8.48;4.10;;;;;;;;;;2582434;23;20480;-96
2023/08/21 05:49:59;;;;;;;5.70;4.20;;;;;;;;;;2606328;22;20003;-95
2023/08/21 05:51:00;;;;;;;4.75;4.18;;;;;;;;;;2610532;22;19992;-96
2023/08/21 05:52:00;;;;;;;6.07;4.10;;;;;;;;;;2620406;22;20047;-96
2023/08/21 05:53:03;;;;;;;7.68;4.03;;;;;;;;;;2617685;22;20014;-96
2023/08/21 05:54:03;;;;;;;5.78;4.03;;;;;;;;;;2583623;22;20015;-96
2023/08/21 05:55:05;;;;;;;7.38;4.18;;;;;;;;;;2585965;23;20452;-96
2023/08/21 05:56:05;;;;;;;5.28;4.35;;;;;;;;;;2591319;22;20075;-94
2023/08/21 05:57:06;;;;;;;7.57;3.95;;;;;;;;;;2586252;23;20008;-96
2023/08/21 05:58:06;;;;;;;5.03;4.22;;;;;;;;;;2582718;23;20030;-96
2023/08/21 05:59:10;;;;;;;9.57;5.03;;;;;;;;;;2582371;23;20480;-95
2023/08/21 06:00:12;;;;;;;6.07;3.80;;;;;;;;;;2583235;22;20007;-96
2023/08/21 06:01:13;;;;;;;7.25;4.93;;;;;;;;;;2582984;22;20429;-96
2023/08/21 06:02:14;;;;;;;6.50;4.65;;;;;;;;;;2582451;23;20015;-95
2023/08/21 06:03:14;;;;;;;7.85;4.20;;;;;;;;;;2135572;22;10368429;-96
2023/08/21 06:04:16;;;;;;;5.68;3.83;;;;;;;;;;2599954;22;20044;-95
2023/08/21 06:05:16;;;;;;;5.55;4.30;;;;;;;;;;2611930;22;20011;-96
2023/08/21 06:06:19;;;;;;;5.65;4.07;;;;;;;;;;2609385;22;20432;-96
2023/08/21 06:07:19;;;;;;;5.53;4.45;;;;;;;;;;2607763;22;20014;-93
2023/08/21 06:08:20;;;;;;;5.47;4.00;;;;;;;;;;2609069;22;20000;-96
2023/08/21 06:09:20;;;;;;;7.97;4.25;;;;;;;;;;2594839;22;20016;-96
2023/08/21 06:10:21;;;;;;;7.60;4.55;;;;;;;;;;2582282;23;20511;-96
2023/08/21 06:11:21;;;;;;;5.78;4.20;;;;;;;;;;2582351;23;20004;-95
2023/08/21 06:12:21;;;;;;;6.03;4.30;;;;;;;;;;2582183;23;20372;-95
2023/08/21 06:13:22;;;;;;;6.97;4.15;;;;;;;;;;2582338;23;20462;-96
2023/08/21 06:14:28;;;;;;;6.43;4.38;;;;;;;;;;2582483;23;20113;-95
2023/08/21 06:15:29;;;;;;;5.80;3.92;;;;;;;;;;2585610;22;20018;-95
2023/08/21 06:16:29;;;;;;;4.68;4.20;;;;;;;;;;2583700;23;20098;-96
2023/08/21 06:17:29;;;;;;;6.15;3.95;;;;;;;;;;2582464;23;20549;-94
2023/08/21 06:18:30;;;;;;;8.20;3.95;;;;;;;;;;2595408;22;20002;-95
2023/08/21 06:19:30;;;;;;;5.55;4.03;;;;;;;;;;2594967;22;20531;-96
2023/08/21 06:20:31;;;;;;;6.97;4.38;;;;;;;;;;2582149;22;20519;-96
2023/08/21 06:21:31;;;;;;;7.10;3.90;;;;;;;;;;2582201;23;20012;-95
2023/08/21 06:22:32;;;;;;;7.70;4.15;;;;;;;;;;2582199;23;20004;-96
2023/08/21 06:23:32;;;;;;;5.70;3.85;;;;;;;;;;2582047;23;20008;-95
2023/08/21 06:24:33;;;;;;;3.88;3.47;;;;;;;;;;2595359;22;20004;-96
2023/08/21 06:25:33;;;;;;;5.85;3.85;;;;;;;;;;2594573;22;20087;-95
2023/08/21 06:26:34;;;;;;;6.95;3.70;;;;;;;;;;2582208;23;20441;-96
2023/08/21 06:27:34;;;;;;;4.90;3.80;;;;;;;;;;2594763;22;20085;-95
2023/08/21 06:28:34;;;;;;;6.47;3.80;;;;;;;;;;2582283;23;20442;-96
2023/08/21 06:29:37;;;;;;;5.10;3.90;;;;;;;;;;2595193;22;20449;-94
2023/08/21 06:30:37;;;;;;;5.63;3.90;;;;;;;;;;2594803;22;20437;-96
2023/08/21 06:31:38;;;;;;;5.25;3.95;;;;;;;;;;2599295;22;19996;-96
2023/08/21 06:32:38;;;;;;;6.05;4.68;;;;;;;;;;2596492;22;20066;-95
2023/08/21 06:33:38;;;;;;;5.85;3.58;;;;;;;;;;2582296;23;20075;-96
2023/08/21 06:34:41;;;;;;;5.75;4.13;;;;;;;;;;2582242;23;20000;-96
2023/08/21 06:35:41;;;;;;;4.88;3.50;;;;;;;;;;2582192;22;20057;-95
2023/08/21 06:36:41;;;;;;;5.35;3.83;;;;;;;;;;2582065;23;20000;-96
2023/08/21 06:37:42;;;;;;;4.88;3.60;;;;;;;;;;2598826;22;20447;-95
2023/08/21 06:38:44;;;;;;;5.03;3.78;;;;;;;;;;2594763;22;20000;-95
2023/08/21 06:39:44;;;;;;;5.20;4.15;;;;;;;;;;2582369;22;20054;-96
2023/08/21 06:40:46;;;;;;;7.65;3.78;;;;;;;;;;2582171;23;20070;-96
2023/08/21 06:41:46;;;;;;;9.63;4.00;;;;;;;;;;2598596;22;20033;-96
2023/08/21 06:42:49;;;;;;;5.78;3.83;;;;;;;;;;2600010;22;19992;-96
2023/08/21 06:43:49;;;;;;;5.15;3.88;;;;;;;;;;2608315;22;19976;-96
2023/08/21 06:44:50;;;;;;;5.15;3.30;;;;;;;;;;2595011;22;19992;-96
2023/08/21 06:45:52;;;;;;;5.13;3.67;;;;;;;;;;2595340;22;19992;-95
2023/08/21 06:46:52;;;;;;;5.78;3.95;;;;;;;;;;2582215;22;19992;-95
2023/08/21 06:47:53;;;;;;;4.30;3.90;;;;;;;;;;2582254;23;19996;-96
2023/08/21 06:48:53;;;;;;;5.03;3.80;;;;;;;;;;2594723;22;20062;-95
2023/08/21 06:49:53;;;;;;;4.35;3.33;;;;;;;;;;2594874;22;20003;-96
2023/08/21 06:50:54;;;;;;;4.72;3.35;;;;;;;;;;2582185;23;19996;-95
2023/08/21 06:51:54;;;;;;;6.78;3.75;;;;;;;;;;2582180;23;20003;-95
2023/08/21 06:52:54;;;;;;;6.70;4.03;;;;;;;;;;2581989;23;19992;-96
2023/08/21 06:53:55;;;;;;;5.30;3.60;;;;;;;;;;2597962;22;20019;-96
2023/08/21 06:54:55;;;;;;;4.32;3.92;;;;;;;;;;2594623;22;19999;-96
2023/08/21 06:55:56;;;;;;;4.13;3.50;;;;;;;;;;2598122;22;19988;-96
2023/08/21 06:56:57;;;;;;;6.47;3.67;;;;;;;;;;2594693;22;19999;-95
2023/08/21 06:57:57;;;;;;;5.50;3.80;;;;;;;;;;2597532;22;20679;-96
2023/08/21 06:58:58;;;;;;;6.85;3.75;;;;;;;;;;2607602;22;20015;-94
2023/08/21 06:59:58;;;;;;;4.93;3.60;;;;;;;;;;2607272;22;20030;-96
2023/08/21 07:01:00;;;;;;;6.15;4.00;;;;;;;;;;2594714;22;20007;-95
2023/08/21 07:02:00;;;;;;;4.00;3.60;;;;;;;;;;2582107;22;20012;-95
2023/08/21 07:03:01;;;;;;;5.65;3.53;;;;;;;;;;2597329;22;19999;-95
2023/08/21 07:04:01;;;;;;;4.40;3.67;;;;;;;;;;2594520;22;20011;-95
2023/08/21 07:05:05;;;;;;;7.90;3.40;;;;;;;;;;2258136;22;10462835;-95
2023/08/21 07:06:05;;;;;;;8.60;3.92;;;;;;;;;;2597575;22;20259;-96
2023/08/21 07:07:14;;;;;;;5.18;3.33;;;;;;;;;;2594659;22;20419;-95
2023/08/21 07:08:15;;;;;;;4.25;3.15;;;;;;;;;;2583635;22;20008;-95
2023/08/21 07:09:18;;;;;;;4.05;3.47;;;;;;;;;;2594605;22;20014;-96
2023/08/21 07:10:19;;;;;;;4.53;3.38;;;;;;;;;;2608172;22;20386;-95
2023/08/21 07:11:19;;;;;;;4.63;3.45;;;;;;;;;;2596816;22;20006;-96
2023/08/21 07:12:19;;;;;;;7.15;3.80;;;;;;;;;;2607205;22;20007;-96
2023/08/21 07:13:20;;;;;;;5.72;3.80;;;;;;;;;;2607374;22;20440;-95
2023/08/21 07:14:23;;;;;;;5.50;3.63;;;;;;;;;;2594191;22;20470;-95
2023/08/21 07:15:26;;;;;;;6.38;3.60;;;;;;;;;;2594498;22;20019;-95
2023/08/21 07:16:27;;;;;;;7.28;3.60;;;;;;;;;;2582345;22;20012;-95
2023/08/21 07:17:27;;;;;;;4.05;3.30;;;;;;;;;;2581721;23;20491;-95
2023/08/21 07:18:28;;;;;;;6.65;3.40;;;;;;;;;;2594637;22;20357;-95
2023/08/21 07:19:28;;;;;;;4.85;3.33;;;;;;;;;;2581698;22;20185;-94
2023/08/21 07:20:29;;;;;;;4.85;4.22;;;;;;;;;;2582161;23;20015;-93
2023/08/21 07:21:29;;;;;;;6.80;3.50;;;;;;;;;;2581765;23;20014;-94
2023/08/21 07:22:29;;;;;;;5.70;3.72;;;;;;;;;;2581584;23;20032;-95
2023/08/21 07:23:33;;;;;;;4.22;3.55;;;;;;;;;;2581939;23;20004;-94
2023/08/21 07:24:34;;;;;;;7.60;3.72;;;;;;;;;;2582406;22;20008;-95
2023/08/21 07:25:34;;;;;;;4.22;3.55;;;;;;;;;;2595131;22;20007;-96
2023/08/21 07:26:35;;;;;;;6.00;3.00;;;;;;;;;;2594432;22;20011;-95
2023/08/21 07:27:35;;;;;;;4.40;3.35;;;;;;;;;;2594938;22;20392;-94
2023/08/21 07:28:35;;;;;;;6.45;3.88;;;;;;;;;;2596172;22;19999;-94
2023/08/21 07:29:36;;;;;;;4.47;3.50;;;;;;;;;;2612478;22;20099;-96
2023/08/21 07:30:39;;;;;;;4.15;3.75;;;;;;;;;;2615763;22;20003;-92
2023/08/21 07:31:39;;;;;;;5.45;3.70;;;;;;;;;;2602951;22;20317;-96
2023/08/21 07:32:40;;;;;;;3.53;3.22;;;;;;;;;;2594475;22;19996;-96
2023/08/21 07:33:40;;;;;;;5.13;3.40;;;;;;;;;;2581718;23;20027;-95
2023/08/21 07:34:41;;;;;;;4.15;3.67;;;;;;;;;;2581520;22;20022;-95
2023/08/21 07:35:41;;;;;;;5.13;3.50;;;;;;;;;;2581804;23;20062;-96
2023/08/21 07:36:42;;;;;;;4.97;3.42;;;;;;;;;;2594391;22;19995;-93
2023/08/21 07:37:45;;;;;;;6.90;4.28;;;;;;;;;;2581743;23;20004;-95
2023/08/21 07:38:46;;;;;;;3.50;3.20;;;;;;;;;;2598177;22;20043;-96
2023/08/21 07:39:46;;;;;;;7.22;3.60;;;;;;;;;;2594456;22;20004;-96
2023/08/21 07:40:46;;;;;;;7.20;3.85;;;;;;;;;;2594529;22;20015;-96
2023/08/21 07:41:47;;;;;;;4.07;3.67;;;;;;;;;;2611039;22;20123;-95
2023/08/21 07:42:47;;;;;;;6.03;3.75;;;;;;;;;;2598928;22;19996;-96
2023/08/21 07:43:48;;;;;;;5.75;3.78;;;;;;;;;;2603172;22;19992;-96
2023/08/21 07:44:48;;;;;;;5.70;4.10;;;;;;;;;;2151262;22;10245570;-94
2023/08/21 07:45:48;;;;;;;5.18;3.50;;;;;;;;;;2594431;22;20402;-95
2023/08/21 07:46:49;;;;;;;9.57;3.85;;;;;;;;;;2582014;23;19999;-96
2023/08/21 07:47:49;;;;;;;4.63;3.92;;;;;;;;;;2551901;23;19996;-95
2023/08/21 07:48:50;;;;;;;4.90;3.80;;;;;;;;;;2581824;23;20049;-95
2023/08/21 07:49:50;;;;;;;5.10;3.80;;;;;;;;;;2594415;22;19991;-95
2023/08/21 07:50:52;;;;;;;8.18;4.18;;;;;;;;;;2607328;22;20038;-96
2023/08/21 07:51:53;;;;;;;4.50;3.47;;;;;;;;;;2594130;22;20415;-94
2023/08/21 07:52:53;;;;;;;7.63;4.20;;;;;;;;;;2581324;23;19995;-95
2023/08/21 07:53:54;;;;;;;5.03;3.88;;;;;;;;;;2594338;22;20007;-96
2023/08/21 07:54:59;;;;;;;4.30;3.53;;;;;;;;;;2581603;23;20000;-96
2023/08/21 07:55:59;;;;;;;5.53;4.05;;;;;;;;;;2582309;22;20365;-96
2023/08/21 07:57:00;;;;;;;5.43;3.85;;;;;;;;;;2597404;22;20000;-94
2023/08/21 07:58:10;;;;;;;5.22;3.80;;;;;;;;;;2594512;22;20031;-95
2023/08/21 07:59:11;;;;;;;5.50;4.00;;;;;;;;;;2596652;22;20035;-96
2023/08/21 08:00:13;;;;;;;6.00;3.92;;;;;;;;;;2609215;22;20460;-95
2023/08/21 08:01:14;;;;;;;7.55;3.97;;;;;;;;;;2597518;22;20138;-96
2023/08/21 08:03:38;;;;;;;5.60;3.83;;;;;;;;;;2594606;22;19999;-96
2023/08/21 08:04:39;;;;;;;5.32;3.88;;;;;;;;;;2594398;22;20000;-96
2023/08/21 08:05:39;;;;;;;8.40;3.80;;;;;;;;;;2598679;22;20444;-95
2023/08/21 08:13:56;;;;;;;;;;;;;;;;;;2581024;22;19903;-95
2023/08/21 08:14:59;;;;;;;3.88;3.47;;;;;;;;;;2573921;23;20392;-94
2023/08/21 08:16:00;;;;;;;5.45;3.58;;;;;;;;;;2577830;23;20015;-95
2023/08/21 08:17:01;;;;;;;5.15;3.58;;;;;;;;;;2590414;22;20298;-93
2023/08/21 08:18:19;;;;;;;5.22;3.65;;;;;;;;;;2595166;23;20000;-93
2023/08/21 08:19:23;;;;;;;8.07;3.25;;;;;;;;;;2582036;23;20070;-94
2023/08/21 08:20:23;;;;;;;5.78;3.53;;;;;;;;;;2569891;23;20377;-96
2023/08/21 08:21:23;;;;;;;4.38;3.00;;;;;;;;;;2569319;23;20009;-96
2023/08/21 08:22:24;;;;;;;4.90;3.28;;;;;;;;;;2569232;23;20012;-94
2023/08/21 08:23:24;;;;;;;6.95;3.42;;;;;;;;;;2569426;23;20004;-96
2023/08/21 08:24:25;;;;;;;5.95;3.00;;;;;;;;;;2581892;23;20457;-94
2023/08/21 08:25:25;;;;;;;5.98;2.88;;;;;;;;;;2132534;22;10438274;-93
2023/08/21 08:26:26;;;;;;;3.72;3.22;;;;;;;;;;2583434;23;20006;-93
2023/08/21 08:27:26;;;;;;;4.47;3.30;;;;;;;;;;2582490;23;20054;-96
2023/08/21 08:28:26;;;;;;;4.68;3.25;;;;;;;;;;2583647;23;20006;-96
2023/08/21 08:29:27;;;;;;;5.07;3.20;;;;;;;;;;2584336;23;20028;-96
2023/08/21 08:30:27;;;;;;;3.35;3.05;;;;;;;;;;2584239;23;20431;-96
2023/08/21 08:31:28;;;;;;;4.70;3.33;;;;;;;;;;2595310;22;20137;-96
2023/08/21 08:32:29;;;;;;;5.88;3.78;;;;;;;;;;2582522;23;20016;-96
2023/08/21 08:33:29;;;;;;;7.38;3.40;;;;;;;;;;2582397;23;20513;-95
2023/08/21 08:34:29;;;;;;;3.47;3.17;;;;;;;;;;2582472;23;20461;-95
2023/08/21 08:35:30;;;;;;;5.20;3.03;;;;;;;;;;2570031;23;20005;-96
2023/08/21 08:36:33;;;;;;;5.25;3.67;;;;;;;;;;2570055;23;20370;-94
2023/08/21 08:37:33;;;;;;;5.63;3.45;;;;;;;;;;2570387;23;20013;-95
2023/08/21 08:38:34;;;;;;;4.47;3.05;;;;;;;;;;2569949;23;20087;-95
2023/08/21 08:39:34;;;;;;;5.10;3.40;;;;;;;;;;2582642;23;20139;-94
2023/08/21 08:40:41;;;;;;;5.63;3.30;;;;;;;;;;2583843;22;20481;-94
2023/08/21 08:41:48;;;;;;;4.40;3.15;;;;;;;;;;2595244;22;20442;-95
2023/08/21 08:42:49;;;;;;;5.97;3.03;;;;;;;;;;2593897;22;19996;-96
2023/08/21 08:43:49;;;;;;;5.22;3.00;;;;;;;;;;2582325;22;19988;-95
2023/08/21 08:44:53;;;;;;;6.03;2.95;;;;;;;;;;2585943;23;20003;-96
2023/08/21 08:45:56;;;;;;;6.30;2.85;;;;;;;;;;2582435;23;20023;-94
2023/08/21 08:46:57;;;;;;;5.45;3.28;;;;;;;;;;2570539;23;20091;-94
2023/08/21 08:48:01;;;;;;;4.50;3.05;;;;;;;;;;2569947;23;19992;-95
2023/08/21 08:49:02;;;;;;;6.20;3.03;;;;;;;;;;2570722;23;20071;-95
2023/08/21 08:50:05;;;;;;;5.30;3.22;;;;;;;;;;2569849;23;20004;-95
2023/08/21 08:51:06;;;;;;;4.78;3.05;;;;;;;;;;2585041;22;20039;-95
2023/08/21 08:52:07;;;;;;;5.13;2.70;;;;;;;;;;2582419;23;20004;-95
2023/08/21 08:53:08;;;;;;;3.67;2.90;;;;;;;;;;2569978;23;20010;-95
2023/08/21 08:54:11;;;;;;;3.30;2.60;;;;;;;;;;2570179;23;20012;-94
2023/08/21 08:55:12;;;;;;;6.45;3.03;;;;;;;;;;2584535;23;20366;-94
2023/08/21 08:56:13;;;;;;;3.38;2.55;;;;;;;;;;2582908;23;20050;-96
2023/08/21 08:57:13;;;;;;;5.53;2.22;;;;;;;;;;2582778;23;20121;-96
2023/08/21 08:58:15;;;;;;;3.13;2.40;;;;;;;;;;2598016;22;20038;-95
2023/08/21 08:59:15;;;;;;;5.75;2.53;;;;;;;;;;2585577;22;20011;-96
2023/08/21 09:00:16;;;;;;;3.88;2.40;;;;;;;;;;2585180;22;20075;-95
2023/08/21 09:01:16;;;;;;;6.95;2.78;;;;;;;;;;2585243;22;20457;-95
2023/08/21 09:02:17;;;;;;;5.75;2.45;;;;;;;;;;2583136;23;20074;-96
2023/08/21 09:03:18;;;;;;;3.53;2.70;;;;;;;;;;2586307;23;20353;-94
2023/08/21 09:04:18;;;;;;;4.07;2.05;;;;;;;;;;2596536;22;20034;-94
2023/08/21 09:05:18;;;;;;;3.60;2.28;;;;;;;;;;2591329;22;20089;-94
2023/08/21 09:06:19;;;;;;;4.07;2.90;;;;;;;;;;2582570;23;20063;-96
2023/08/21 09:07:20;;;;;;;4.50;2.30;;;;;;;;;;2582110;23;20362;-95
2023/08/21 09:08:20;;;;;;;3.10;2.80;;;;;;;;;;2584333;23;20075;-95
2023/08/21 09:10:39;;;;;;;7.55;2.40;;;;;;;;;;2573205;23;20012;-95
2023/08/21 09:11:44;;;;;;;5.28;2.10;;;;;;;;;;2582538;23;20007;-95
2023/08/21 09:12:46;;;;;;;4.35;2.20;;;;;;;;;;2570912;23;20337;-95
2023/08/21 09:13:50;;;;;;;3.58;2.13;;;;;;;;;;2582403;22;20376;-96
2023/08/21 09:14:51;;;;;;;4.82;2.70;;;;;;;;;;2597830;22;20019;-96
2023/08/21 09:15:55;;;;;;;2.97;2.22;;;;;;;;;;2582169;23;20070;-95
2023/08/21 09:17:03;;;;;;;4.53;2.50;;;;;;;;;;2585492;23;19992;-94
2023/08/21 09:18:04;;;;;;;4.93;2.80;;;;;;;;;;2585782;22;20004;-95
2023/08/21 09:19:05;;;;;;;3.92;2.38;;;;;;;;;;2593995;22;20008;-95
2023/08/21 09:20:07;;;;;;;2.65;2.35;;;;;;;;;;2597503;22;20344;-96
2023/08/21 09:21:08;;;;;;;4.90;2.42;;;;;;;;;;2584647;23;20000;-96
2023/08/21 09:22:12;;;;;;;4.57;2.35;;;;;;;;;;2572258;23;20009;-95
2023/08/21 09:23:21;;;;;;;4.18;2.05;;;;;;;;;;2584737;23;19992;-95
2023/08/21 09:24:21;;;;;;;4.10;2.50;;;;;;;;;;2575650;22;20042;-91
2023/08/21 09:25:24;;;;;;;3.95;2.40;;;;;;;;;;2582959;22;20004;-91
2023/08/21 09:26:24;;;;;;;3.58;2.30;;;;;;;;;;2582907;22;20158;-91
2023/08/21 09:27:25;;;;;;;3.80;2.10;;;;;;;;;;2582470;22;20015;-91
2023/08/21 09:28:25;;;;;;;3.92;2.22;;;;;;;;;;2593461;22;20027;-91
2023/08/21 09:29:26;;;;;;;4.82;2.20;;;;;;;;;;2580823;23;20014;-91
2023/08/21 09:30:26;;;;;;;2.60;2.08;;;;;;;;;;2581701;23;20448;-93
2023/08/21 09:31:31;;;;;;;2.15;1.95;;;;;;;;;;2582434;23;20030;-91
2023/08/21 09:32:52;;;;;;;4.65;2.30;;;;;;;;;;2582007;22;20032;-91
2023/08/21 09:33:57;;;;;;;4.95;2.20;;;;;;;;;;2584432;22;20024;-91
2023/08/21 09:34:57;;;;;;;3.58;2.38;;;;;;;;;;2584645;22;20027;-91
2023/08/21 09:35:58;;;;;;;3.40;1.95;;;;;;;;;;2584058;23;20016;-90
2023/08/21 09:36:58;;;;;;;3.60;2.15;;;;;;;;;;2584319;22;20012;-92
2023/08/21 09:37:59;;;;;;;4.07;2.30;;;;;;;;;;2584065;22;20000;-91
2023/08/21 09:39:00;;;;;;;2.55;1.90;;;;;;;;;;2593673;22;20404;-92
2023/08/21 09:40:05;;;;;;;4.32;2.17;;;;;;;;;;2595979;22;20028;-92
2023/08/21 09:41:06;;;;;;;4.22;2.10;;;;;;;;;;2583897;22;20000;-91
2023/08/21 09:42:07;;;;;;;4.03;1.90;;;;;;;;;;2584156;22;20015;-92
2023/08/21 09:43:11;;;;;;;3.25;1.75;;;;;;;;;;2583804;22;20048;-91
2023/08/21 09:44:12;;;;;;;5.15;1.70;;;;;;;;;;2583493;22;20022;-92
2023/08/21 09:45:12;;;;;;;3.65;1.75;;;;;;;;;;2583149;22;20000;-91
2023/08/21 09:46:17;;;;;;;3.13;1.58;;;;;;;;;;2580844;23;20039;-91
2023/08/21 09:47:17;;;;;;;4.53;1.70;;;;;;;;;;2582454;23;20004;-91
2023/08/21 09:48:21;;;;;;;2.72;1.67;;;;;;;;;;2580953;22;20501;-91
2023/08/21 09:49:23;;;;;;;4.25;1.92;;;;;;;;;;2568673;23;20073;-91
2023/08/21 09:50:29;;;;;;;4.25;2.00;;;;;;;;;;2583471;23;20008;-91
2023/08/21 09:51:31;;;;;;;2.88;1.73;;;;;;;;;;2586609;22;20004;-89
2023/08/21 09:52:31;;;;;;;3.33;2.25;;;;;;;;;;2583023;22;20405;-91